Panola, Oklahoma
Current Conditions -  °F | °C
As of 7:15 PM on Tuesday 27 Jan 2015 (Local Time) from KGZL Reporting Station
Clear Clear  
Wind Chill: 54°   Ceiling: Unl
Heat Index: 54°   Visibility: 8mi
Dew Point: 28°   Wind: 7mph
Humidity: 38%   Direction: 110°ESE
Pressure: 30.1"   Gusts: NA
Location:  34.93°N, 95.21°W
Report Text: KGZL 280115Z AUTO 11006KT 8SM CLR 12/M02 A3010 RMK AO2
Loading
Personal Weather Stations






























Interactive Weather Map New forecast layout! Learn more

10-Day Weather Forecast

Advertisements
Track Severe Weather on mobile